Portada
METAR-TAF:

METAR-TAF

Aeroports :

Aeroport Internacional Príncep Said Ibrahim

Moroni, Comores

latitud: 11-32S, longitud: 043-16E, altitud: 29 m

Observació

L'informe es va fer fa 1 hora i 14 minuts, a les 07:00 UTC
Vent 5 kt del Oest
Temperatura 27°C
Humitat 51%
Pressió 1018 hPa
Visibilitat 10 km o més
Escasses núvols a una alçada de 2000 ft

METAR: FMCH 200700Z 27005KT 9999 FEW020 27/16 Q1018 NOSIG

Hora: 11:14 (08:14 UTC)

Pronòstic

L'informe es va fer fa 3 hores i 14 minuts, a les 05:00 UTC
Pronòstic vàlid del 20 a les 06 UTC al 21 a les 12 UTC
Vent 13 kt del Sud/Sud-Est
Visibilitat 10 km o més
Escasses núvols a una alçada de 2000 ft
Evolucionant progressivament
l' 20 a les 16 UTC al 20 a les 18 UTC
Vent 3 kt amb direcció variable
Evolucionant progressivament
l' 21 a les 05 UTC al 21 a les 07 UTC
Vent 10 kt del Sud/Sud-Oest

TAF: FMCH 200500Z 2006/2112 16013KT 9999 FEW020 BECMG 2016/2018 VRB03KT BECMG 2105/2107 20010KT

Observacions i pronòstics meteorològics de més de 4000 aeroports (METAR i TAF).

Les estacions disponibles són els punts grocs i vermells al mapa.

Posi el ratolí al punt desitjat per veure el nom de l'estació.

Feu clic per veure les observacions i els pronòstics meteorològics.

Per canviar el mapa: feu clic els botons verds amb una creu de color negre per apropar; al botó verd amb un guió per allunyar la imatge; o en les fletxes verdes per a mapes adjacents.


METAR-TAF: